sensor_id;sensor_type;location;lat;lon;timestamp;pressure;altitude;pressure_sealevel;temperature;humidity
31088;BME280;17745;55.914;37.554;2023-06-10T00:00:55;99603.56;;;12.57;53.63
31088;BME280;17745;55.914;37.554;2023-06-10T00:03:25;99600.38;;;12.55;53.67
31088;BME280;17745;55.914;37.554;2023-06-10T00:05:53;99601.91;;;12.51;53.79
31088;BME280;17745;55.914;37.554;2023-06-10T00:08:22;99599.75;;;12.48;53.67
31088;BME280;17745;55.914;37.554;2023-06-10T00:10:51;99606.13;;;12.47;53.75
31088;BME280;17745;55.914;37.554;2023-06-10T00:13:20;99604.16;;;12.32;54.15
31088;BME280;17745;55.914;37.554;2023-06-10T00:15:47;99601.25;;;12.34;54.04
31088;BME280;17745;55.914;37.554;2023-06-10T00:18:15;99594.00;;;12.24;54.19
31088;BME280;17745;55.914;37.554;2023-06-10T00:20:45;99604.03;;;12.17;54.48
31088;BME280;17745;55.914;37.554;2023-06-10T00:23:14;99609.28;;;12.06;54.87
31088;BME280;17745;55.914;37.554;2023-06-10T00:25:43;99603.16;;;12.06;54.79
31088;BME280;17745;55.914;37.554;2023-06-10T00:28:10;99604.13;;;11.99;54.95
31088;BME280;17745;55.914;37.554;2023-06-10T00:30:39;99605.50;;;12.02;55.02
31088;BME280;17745;55.914;37.554;2023-06-10T00:33:09;99601.25;;;12.01;55.04
31088;BME280;17745;55.914;37.554;2023-06-10T00:35:39;99609.28;;;11.84;55.55
31088;BME280;17745;55.914;37.554;2023-06-10T00:38:08;99602.44;;;11.88;55.36
31088;BME280;17745;55.914;37.554;2023-06-10T00:40:39;99616.69;;;11.82;55.72
31088;BME280;17745;55.914;37.554;2023-06-10T00:43:07;99614.28;;;11.80;55.72
31088;BME280;17745;55.914;37.554;2023-06-10T00:45:35;99622.25;;;11.80;55.81
31088;BME280;17745;55.914;37.554;2023-06-10T00:48:04;99622.50;;;11.79;55.85
31088;BME280;17745;55.914;37.554;2023-06-10T00:50:32;99632.84;;;11.80;55.84
31088;BME280;17745;55.914;37.554;2023-06-10T00:53:00;99627.28;;;11.77;55.94
31088;BME280;17745;55.914;37.554;2023-06-10T00:55:33;99631.91;;;11.64;56.51
31088;BME280;17745;55.914;37.554;2023-06-10T00:58:03;99634.91;;;11.73;56.11
31088;BME280;17745;55.914;37.554;2023-06-10T01:00:32;99632.03;;;11.75;56.17
31088;BME280;17745;55.914;37.554;2023-06-10T01:03:02;99640.47;;;11.71;56.37
31088;BME280;17745;55.914;37.554;2023-06-10T01:05:34;99644.16;;;11.70;56.36
31088;BME280;17745;55.914;37.554;2023-06-10T01:08:08;99644.16;;;11.70;56.40
31088;BME280;17745;55.914;37.554;2023-06-10T01:10:41;99645.72;;;11.66;56.66
31088;BME280;17745;55.914;37.554;2023-06-10T01:13:11;99647.59;;;11.66;56.72
31088;BME280;17745;55.914;37.554;2023-06-10T01:15:40;99648.69;;;11.70;56.63
31088;BME280;17745;55.914;37.554;2023-06-10T01:18:09;99647.62;;;11.71;56.50
31088;BME280;17745;55.914;37.554;2023-06-10T01:20:42;99652.94;;;11.71;56.55
31088;BME280;17745;55.914;37.554;2023-06-10T01:23:14;99659.59;;;11.73;56.49
31088;BME280;17745;55.914;37.554;2023-06-10T01:25:49;99655.94;;;11.80;56.43
31088;BME280;17745;55.914;37.554;2023-06-10T01:28:27;99653.53;;;11.78;56.41
31088;BME280;17745;55.914;37.554;2023-06-10T01:31:05;99666.00;;;11.78;56.39
31088;BME280;17745;55.914;37.554;2023-06-10T01:33:37;99675.63;;;11.84;56.24
31088;BME280;17745;55.914;37.554;2023-06-10T01:36:06;99677.72;;;11.82;56.25
31088;BME280;17745;55.914;37.554;2023-06-10T01:38:40;99671.69;;;11.86;56.11
31088;BME280;17745;55.914;37.554;2023-06-10T01:41:12;99675.66;;;11.89;56.10
31088;BME280;17745;55.914;37.554;2023-06-10T01:43:40;99685.62;;;11.77;56.25
31088;BME280;17745;55.914;37.554;2023-06-10T01:46:13;99689.44;;;11.86;56.15
31088;BME280;17745;55.914;37.554;2023-06-10T01:48:42;99677.56;;;11.94;56.08
31088;BME280;17745;55.914;37.554;2023-06-10T01:51:09;99681.87;;;12.00;56.01
31088;BME280;17745;55.914;37.554;2023-06-10T01:53:38;99685.69;;;12.04;55.88
31088;BME280;17745;55.914;37.554;2023-06-10T01:56:07;99692.09;;;12.08;55.86
31088;BME280;17745;55.914;37.554;2023-06-10T01:58:34;99693.69;;;12.09;55.67
31088;BME280;17745;55.914;37.554;2023-06-10T02:01:02;99707.19;;;12.08;55.68
31088;BME280;17745;55.914;37.554;2023-06-10T02:03:33;99699.44;;;12.01;55.78
31088;BME280;17745;55.914;37.554;2023-06-10T02:06:02;99700.72;;;11.98;55.73
31088;BME280;17745;55.914;37.554;2023-06-10T02:08:33;99707.06;;;11.97;55.67
31088;BME280;17745;55.914;37.554;2023-06-10T02:11:02;99700.16;;;11.96;55.84
31088;BME280;17745;55.914;37.554;2023-06-10T02:13:31;99701.22;;;11.95;55.95
31088;BME280;17745;55.914;37.554;2023-06-10T02:15:59;99705.41;;;11.91;56.01
31088;BME280;17745;55.914;37.554;2023-06-10T02:18:28;99707.94;;;12.03;55.99
31088;BME280;17745;55.914;37.554;2023-06-10T02:20:56;99704.50;;;12.03;55.90
31088;BME280;17745;55.914;37.554;2023-06-10T02:23:27;99709.84;;;12.08;55.93
31088;BME280;17745;55.914;37.554;2023-06-10T02:25:55;99712.88;;;12.17;55.83
31088;BME280;17745;55.914;37.554;2023-06-10T02:28:26;99717.97;;;12.23;55.63
31088;BME280;17745;55.914;37.554;2023-06-10T02:30:54;99715.16;;;12.35;55.60
31088;BME280;17745;55.914;37.554;2023-06-10T02:33:23;99717.09;;;12.40;55.51
31088;BME280;17745;55.914;37.554;2023-06-10T02:35:51;99718.72;;;12.46;55.39
31088;BME280;17745;55.914;37.554;2023-06-10T02:38:19;99712.13;;;12.49;55.44
31088;BME280;17745;55.914;37.554;2023-06-10T02:40:47;99720.69;;;12.61;55.38
31088;BME280;17745;55.914;37.554;2023-06-10T02:43:15;99722.69;;;12.76;55.21
31088;BME280;17745;55.914;37.554;2023-06-10T02:45:47;99724.13;;;12.89;54.86
31088;BME280;17745;55.914;37.554;2023-06-10T02:48:18;99726.06;;;12.99;54.74
31088;BME280;17745;55.914;37.554;2023-06-10T02:50:45;99729.81;;;13.08;54.47
31088;BME280;17745;55.914;37.554;2023-06-10T02:53:14;99730.44;;;13.21;54.35
31088;BME280;17745;55.914;37.554;2023-06-10T02:55:43;99731.53;;;13.30;54.00
31088;BME280;17745;55.914;37.554;2023-06-10T02:58:11;99729.50;;;13.42;54.04
31088;BME280;17745;55.914;37.554;2023-06-10T03:00:38;99739.66;;;13.51;53.77
31088;BME280;17745;55.914;37.554;2023-06-10T03:03:09;99739.16;;;13.54;53.33
31088;BME280;17745;55.914;37.554;2023-06-10T03:05:38;99730.94;;;13.61;53.13
31088;BME280;17745;55.914;37.554;2023-06-10T03:08:06;99735.25;;;13.77;53.16
31088;BME280;17745;55.914;37.554;2023-06-10T03:10:35;99740.13;;;13.91;52.60
31088;BME280;17745;55.914;37.554;2023-06-10T03:13:10;99741.19;;;14.00;52.29
31088;BME280;17745;55.914;37.554;2023-06-10T03:15:38;99734.03;;;14.00;51.94
31088;BME280;17745;55.914;37.554;2023-06-10T03:18:09;99741.19;;;14.00;51.68
31088;BME280;17745;55.914;37.554;2023-06-10T03:20:40;99740.69;;;14.08;51.72
31088;BME280;17745;55.914;37.554;2023-06-10T03:23:09;99732.72;;;14.13;51.31
31088;BME280;17745;55.914;37.554;2023-06-10T03:25:37;99739.66;;;14.25;51.38
31088;BME280;17745;55.914;37.554;2023-06-10T03:28:05;99742.87;;;14.37;51.02
31088;BME280;17745;55.914;37.554;2023-06-10T03:30:37;99737.84;;;14.41;50.60
31088;BME280;17745;55.914;37.554;2023-06-10T03:33:06;99733.03;;;14.48;50.39
31088;BME280;17745;55.914;37.554;2023-06-10T03:35:47;99734.34;;;14.46;50.06
31088;BME280;17745;55.914;37.554;2023-06-10T03:38:15;99737.81;;;14.56;50.13
31088;BME280;17745;55.914;37.554;2023-06-10T03:40:44;99734.63;;;14.70;50.00
31088;BME280;17745;55.914;37.554;2023-06-10T03:43:20;99738.12;;;14.76;49.62
31088;BME280;17745;55.914;37.554;2023-06-10T03:45:59;99738.94;;;14.81;49.38
31088;BME280;17745;55.914;37.554;2023-06-10T03:48:30;99750.13;;;14.89;49.06
31088;BME280;17745;55.914;37.554;2023-06-10T03:51:02;99744.00;;;14.78;48.36
31088;BME280;17745;55.914;37.554;2023-06-10T03:53:34;99752.25;;;14.76;47.86
31088;BME280;17745;55.914;37.554;2023-06-10T03:56:07;99748.53;;;14.82;47.97
31088;BME280;17745;55.914;37.554;2023-06-10T03:58:35;99745.06;;;14.97;48.03
31088;BME280;17745;55.914;37.554;2023-06-10T04:01:06;99738.41;;;15.00;47.47
31088;BME280;17745;55.914;37.554;2023-06-10T04:03:35;99747.72;;;15.13;47.52
31088;BME280;17745;55.914;37.554;2023-06-10T04:06:09;99744.50;;;15.21;47.29
31088;BME280;17745;55.914;37.554;2023-06-10T04:08:42;99754.59;;;15.40;47.37
31088;BME280;17745;55.914;37.554;2023-06-10T04:11:11;99748.19;;;15.41;46.45
31088;BME280;17745;55.914;37.554;2023-06-10T04:13:39;99755.41;;;15.30;45.91
31088;BME280;17745;55.914;37.554;2023-06-10T04:16:07;99753.84;;;15.08;45.46
31088;BME280;17745;55.914;37.554;2023-06-10T04:18:36;99757.56;;;15.12;45.53
31088;BME280;17745;55.914;37.554;2023-06-10T04:21:05;99767.69;;;15.26;45.42
31088;BME280;17745;55.914;37.554;2023-06-10T04:23:36;99766.06;;;15.35;45.40
31088;BME280;17745;55.914;37.554;2023-06-10T04:26:05;99767.59;;;15.57;45.33
31088;BME280;17745;55.914;37.554;2023-06-10T04:28:35;99757.41;;;15.75;45.17
31088;BME280;17745;55.914;37.554;2023-06-10T04:31:02;99762.44;;;15.86;45.06
31088;BME280;17745;55.914;37.554;2023-06-10T04:33:31;99767.75;;;15.97;44.83
31088;BME280;17745;55.914;37.554;2023-06-10T04:36:01;99764.81;;;16.04;44.40
31088;BME280;17745;55.914;37.554;2023-06-10T04:38:31;99775.44;;;16.09;44.25
31088;BME280;17745;55.914;37.554;2023-06-10T04:41:02;99771.16;;;16.13;43.87
31088;BME280;17745;55.914;37.554;2023-06-10T04:43:32;99770.38;;;16.12;43.41
31088;BME280;17745;55.914;37.554;2023-06-10T04:46:07;99769.53;;;16.17;43.48
31088;BME280;17745;55.914;37.554;2023-06-10T04:48:36;99767.38;;;16.24;43.33
31088;BME280;17745;55.914;37.554;2023-06-10T04:51:05;99781.25;;;16.26;43.31
31088;BME280;17745;55.914;37.554;2023-06-10T04:53:35;99773.22;;;16.21;42.45
31088;BME280;17745;55.914;37.554;2023-06-10T04:56:07;99772.78;;;16.09;42.29
31088;BME280;17745;55.914;37.554;2023-06-10T04:58:35;99779.84;;;15.73;41.92
31088;BME280;17745;55.914;37.554;2023-06-10T05:01:04;99779.56;;;15.75;41.70
31088;BME280;17745;55.914;37.554;2023-06-10T05:03:35;99788.91;;;15.83;41.85
31088;BME280;17745;55.914;37.554;2023-06-10T05:06:03;99787.25;;;15.97;41.97
31088;BME280;17745;55.914;37.554;2023-06-10T05:08:30;99784.81;;;16.06;41.98
31088;BME280;17745;55.914;37.554;2023-06-10T05:11:00;99784.47;;;16.23;42.09
31088;BME280;17745;55.914;37.554;2023-06-10T05:13:50;99787.37;;;16.27;41.53
31088;BME280;17745;55.914;37.554;2023-06-10T05:16:19;99794.75;;;15.85;41.30
31088;BME280;17745;55.914;37.554;2023-06-10T05:18:47;99792.34;;;15.83;41.15
31088;BME280;17745;55.914;37.554;2023-06-10T05:21:17;99797.94;;;16.03;41.22
31088;BME280;17745;55.914;37.554;2023-06-10T05:23:46;99799.72;;;16.18;41.18
31088;BME280;17745;55.914;37.554;2023-06-10T05:26:14;99806.03;;;16.32;40.94
31088;BME280;17745;55.914;37.554;2023-06-10T05:28:43;99794.50;;;16.42;40.95
31088;BME280;17745;55.914;37.554;2023-06-10T05:31:13;99801.53;;;16.27;40.25
31088;BME280;17745;55.914;37.554;2023-06-10T05:33:41;99800.28;;;16.14;40.72
31088;BME280;17745;55.914;37.554;2023-06-10T05:36:11;99791.72;;;15.10;41.70
31088;BME280;17745;55.914;37.554;2023-06-10T05:38:39;99813.81;;;15.52;41.54
31088;BME280;17745;55.914;37.554;2023-06-10T05:41:07;99815.69;;;15.26;42.19
31088;BME280;17745;55.914;37.554;2023-06-10T05:43:36;99811.69;;;15.34;42.02
31088;BME280;17745;55.914;37.554;2023-06-10T05:46:04;99810.09;;;15.38;42.16
31088;BME280;17745;55.914;37.554;2023-06-10T05:48:34;99807.38;;;15.58;41.98
31088;BME280;17745;55.914;37.554;2023-06-10T05:51:03;99813.44;;;15.90;41.31
31088;BME280;17745;55.914;37.554;2023-06-10T05:53:32;99809.78;;;15.55;42.21
31088;BME280;17745;55.914;37.554;2023-06-10T05:56:01;99809.97;;;15.84;41.90
31088;BME280;17745;55.914;37.554;2023-06-10T05:58:31;99819.72;;;16.25;41.50
31088;BME280;17745;55.914;37.554;2023-06-10T06:00:59;99824.50;;;15.26;42.65
31088;BME280;17745;55.914;37.554;2023-06-10T06:03:28;99824.97;;;15.75;41.94
31088;BME280;17745;55.914;37.554;2023-06-10T06:05:59;99822.53;;;15.84;41.72
31088;BME280;17745;55.914;37.554;2023-06-10T06:08:30;99819.09;;;15.73;41.80
31088;BME280;17745;55.914;37.554;2023-06-10T06:10:58;99813.16;;;15.86;41.72
31088;BME280;17745;55.914;37.554;2023-06-10T06:13:27;99819.28;;;16.03;41.29
31088;BME280;17745;55.914;37.554;2023-06-10T06:16:13;99819.16;;;16.28;41.01
31088;BME280;17745;55.914;37.554;2023-06-10T06:18:45;99811.66;;;16.76;40.80
31088;BME280;17745;55.914;37.554;2023-06-10T06:21:15;99820.47;;;17.16;39.95
31088;BME280;17745;55.914;37.554;2023-06-10T06:23:43;99817.16;;;17.54;39.52
31088;BME280;17745;55.914;37.554;2023-06-10T06:26:19;99823.34;;;18.03;39.40
31088;BME280;17745;55.914;37.554;2023-06-10T06:28:47;99817.22;;;18.60;38.80
31088;BME280;17745;55.914;37.554;2023-06-10T06:31:17;99818.44;;;18.68;37.49
31088;BME280;17745;55.914;37.554;2023-06-10T06:36:34;99819.66;;;18.18;37.13
31088;BME280;17745;55.914;37.554;2023-06-10T06:39:03;99814.41;;;17.59;37.26
31088;BME280;17745;55.914;37.554;2023-06-10T06:42:21;99814.81;;;17.47;37.64
31088;BME280;17745;55.914;37.554;2023-06-10T06:44:50;99832.94;;;16.51;38.77
31088;BME280;17745;55.914;37.554;2023-06-10T06:47:23;99830.09;;;16.77;38.45
31088;BME280;17745;55.914;37.554;2023-06-10T06:50:11;99835.63;;;17.26;38.03
31088;BME280;17745;55.914;37.554;2023-06-10T06:52:44;99831.69;;;17.96;36.86
31088;BME280;17745;55.914;37.554;2023-06-10T06:55:12;99845.59;;;18.23;36.42
31088;BME280;17745;55.914;37.554;2023-06-10T06:57:41;99842.63;;;17.76;36.62
31088;BME280;17745;55.914;37.554;2023-06-10T07:00:10;99858.06;;;17.84;36.30
31088;BME280;17745;55.914;37.554;2023-06-10T07:02:39;99858.31;;;17.87;35.87
31088;BME280;17745;55.914;37.554;2023-06-10T07:05:11;99854.53;;;17.64;36.05
31088;BME280;17745;55.914;37.554;2023-06-10T07:07:42;99860.75;;;16.90;36.96
31088;BME280;17745;55.914;37.554;2023-06-10T07:10:30;99841.44;;;16.58;37.23
31088;BME280;17745;55.914;37.554;2023-06-10T07:12:59;99860.69;;;16.55;37.28
31088;BME280;17745;55.914;37.554;2023-06-10T07:15:28;99861.09;;;16.28;37.77
31088;BME280;17745;55.914;37.554;2023-06-10T07:17:56;99858.28;;;16.04;38.13
31088;BME280;17745;55.914;37.554;2023-06-10T07:20:24;99863.63;;;15.98;38.47
31088;BME280;17745;55.914;37.554;2023-06-10T07:22:54;99856.97;;;16.51;37.89
31088;BME280;17745;55.914;37.554;2023-06-10T07:25:22;99860.41;;;17.02;37.44
31088;BME280;17745;55.914;37.554;2023-06-10T07:27:50;99854.88;;;16.48;37.77
31088;BME280;17745;55.914;37.554;2023-06-10T07:30:18;99842.84;;;16.46;37.53
31088;BME280;17745;55.914;37.554;2023-06-10T07:32:47;99841.91;;;16.21;37.78
31088;BME280;17745;55.914;37.554;2023-06-10T07:35:17;99862.56;;;15.84;38.48
31088;BME280;17745;55.914;37.554;2023-06-10T07:37:46;99866.97;;;16.35;37.74
31088;BME280;17745;55.914;37.554;2023-06-10T07:40:16;99868.06;;;16.74;36.72
31088;BME280;17745;55.914;37.554;2023-06-10T07:42:44;99876.34;;;17.18;35.80
31088;BME280;17745;55.914;37.554;2023-06-10T07:45:13;99876.44;;;17.07;34.65
31088;BME280;17745;55.914;37.554;2023-06-10T07:47:42;99873.09;;;17.26;34.28
31088;BME280;17745;55.914;37.554;2023-06-10T07:50:11;99861.63;;;17.20;33.61
31088;BME280;17745;55.914;37.554;2023-06-10T07:52:40;99874.19;;;17.20;33.66
31088;BME280;17745;55.914;37.554;2023-06-10T07:55:09;99874.13;;;17.30;33.26
31088;BME280;17745;55.914;37.554;2023-06-10T07:57:43;99862.75;;;17.43;32.47
31088;BME280;17745;55.914;37.554;2023-06-10T08:00:12;99886.69;;;17.35;32.37
31088;BME280;17745;55.914;37.554;2023-06-10T08:02:40;99879.63;;;17.44;32.17
31088;BME280;17745;55.914;37.554;2023-06-10T08:05:10;99882.38;;;17.63;32.32
31088;BME280;17745;55.914;37.554;2023-06-10T08:07:41;99874.31;;;17.68;32.16
31088;BME280;17745;55.914;37.554;2023-06-10T08:10:10;99874.75;;;18.05;32.03
31088;BME280;17745;55.914;37.554;2023-06-10T08:12:38;99882.97;;;18.33;31.82
31088;BME280;17745;55.914;37.554;2023-06-10T08:15:09;99884.81;;;18.38;31.50
31088;BME280;17745;55.914;37.554;2023-06-10T08:17:40;99867.44;;;18.54;31.27
31088;BME280;17745;55.914;37.554;2023-06-10T08:20:13;99895.59;;;18.33;30.71
31088;BME280;17745;55.914;37.554;2023-06-10T08:22:49;99900.25;;;18.65;30.64
31088;BME280;17745;55.914;37.554;2023-06-10T08:25:18;99892.00;;;18.62;30.35
31088;BME280;17745;55.914;37.554;2023-06-10T08:27:51;99892.22;;;18.65;30.60
31088;BME280;17745;55.914;37.554;2023-06-10T08:30:30;99905.69;;;18.79;30.74
31088;BME280;17745;55.914;37.554;2023-06-10T08:33:10;99897.06;;;18.82;30.43
31088;BME280;17745;55.914;37.554;2023-06-10T08:35:38;99894.81;;;18.51;30.59
31088;BME280;17745;55.914;37.554;2023-06-10T08:38:07;99897.78;;;17.77;31.66
31088;BME280;17745;55.914;37.554;2023-06-10T08:40:37;99900.38;;;17.57;32.15
31088;BME280;17745;55.914;37.554;2023-06-10T08:43:07;99906.28;;;17.54;32.14
31088;BME280;17745;55.914;37.554;2023-06-10T08:45:41;99910.75;;;17.64;32.22
31088;BME280;17745;55.914;37.554;2023-06-10T08:48:12;99907.34;;;17.24;31.80
31088;BME280;17745;55.914;37.554;2023-06-10T08:50:43;99920.00;;;17.48;31.92
31088;BME280;17745;55.914;37.554;2023-06-10T08:53:18;99923.59;;;17.92;31.99
31088;BME280;17745;55.914;37.554;2023-06-10T08:56:00;99914.78;;;18.40;31.86
31088;BME280;17745;55.914;37.554;2023-06-10T08:58:32;99913.75;;;18.60;31.39
31088;BME280;17745;55.914;37.554;2023-06-10T09:01:09;99903.91;;;19.46;31.00
31088;BME280;17745;55.914;37.554;2023-06-10T09:03:39;99903.13;;;20.21;30.37
31088;BME280;17745;55.914;37.554;2023-06-10T09:06:09;99923.59;;;20.03;29.31
31088;BME280;17745;55.914;37.554;2023-06-10T09:08:39;99913.41;;;19.85;28.68
31088;BME280;17745;55.914;37.554;2023-06-10T09:11:11;99919.91;;;19.18;28.57
31088;BME280;17745;55.914;37.554;2023-06-10T09:13:39;99925.00;;;19.20;28.82
31088;BME280;17745;55.914;37.554;2023-06-10T09:16:09;99920.19;;;18.97;28.99
31088;BME280;17745;55.914;37.554;2023-06-10T09:18:39;99920.28;;;19.45;28.52
31088;BME280;17745;55.914;37.554;2023-06-10T09:21:12;99919.06;;;19.70;27.92
31088;BME280;17745;55.914;37.554;2023-06-10T09:23:40;99901.22;;;20.21;27.98
31088;BME280;17745;55.914;37.554;2023-06-10T09:26:09;99920.56;;;20.74;27.70
31088;BME280;17745;55.914;37.554;2023-06-10T09:28:38;99918.75;;;20.83;27.45
31088;BME280;17745;55.914;37.554;2023-06-10T09:31:12;99914.81;;;19.83;27.81
31088;BME280;17745;55.914;37.554;2023-06-10T09:33:41;99923.47;;;19.47;27.13
31088;BME280;17745;55.914;37.554;2023-06-10T09:36:09;99913.56;;;19.47;27.59
31088;BME280;17745;55.914;37.554;2023-06-10T09:38:50;99905.84;;;19.26;28.36
31088;BME280;17745;55.914;37.554;2023-06-10T09:41:41;99919.91;;;18.61;29.49
31088;BME280;17745;55.914;37.554;2023-06-10T09:44:15;99925.50;;;17.62;30.94
31088;BME280;17745;55.914;37.554;2023-06-10T09:46:50;99931.47;;;18.37;30.26
31088;BME280;17745;55.914;37.554;2023-06-10T09:49:19;99929.34;;;18.34;29.94
31088;BME280;17745;55.914;37.554;2023-06-10T09:52:32;99937.88;;;18.17;29.90
31088;BME280;17745;55.914;37.554;2023-06-10T09:55:08;99935.53;;;18.10;29.67
31088;BME280;17745;55.914;37.554;2023-06-10T09:57:38;99940.44;;;18.46;29.29
31088;BME280;17745;55.914;37.554;2023-06-10T10:00:10;99935.78;;;18.76;29.23
31088;BME280;17745;55.914;37.554;2023-06-10T10:02:51;99929.94;;;19.46;29.01
31088;BME280;17745;55.914;37.554;2023-06-10T10:05:21;99929.75;;;20.45;28.56
31088;BME280;17745;55.914;37.554;2023-06-10T10:07:53;99911.13;;;20.99;27.48
31088;BME280;17745;55.914;37.554;2023-06-10T10:10:23;99922.13;;;21.12;26.99
31088;BME280;17745;55.914;37.554;2023-06-10T10:12:56;99918.63;;;20.89;26.84
31088;BME280;17745;55.914;37.554;2023-06-10T10:15:31;99931.34;;;20.46;26.31
31088;BME280;17745;55.914;37.554;2023-06-10T10:18:06;99926.50;;;19.92;26.59
31088;BME280;17745;55.914;37.554;2023-06-10T10:20:41;99925.84;;;19.34;26.59
31088;BME280;17745;55.914;37.554;2023-06-10T10:23:14;99929.62;;;19.33;26.77
31088;BME280;17745;55.914;37.554;2023-06-10T10:25:52;99926.88;;;19.52;26.94
31088;BME280;17745;55.914;37.554;2023-06-10T10:28:24;99923.09;;;19.53;26.80
31088;BME280;17745;55.914;37.554;2023-06-10T10:30:59;99915.84;;;20.01;26.69
31088;BME280;17745;55.914;37.554;2023-06-10T10:33:42;99913.25;;;19.49;25.23
31088;BME280;17745;55.914;37.554;2023-06-10T10:36:18;99919.56;;;18.43;26.09
31088;BME280;17745;55.914;37.554;2023-06-10T10:39:04;99934.78;;;18.91;26.02
31088;BME280;17745;55.914;37.554;2023-06-10T10:41:44;99932.53;;;19.18;26.03
31088;BME280;17745;55.914;37.554;2023-06-10T10:44:15;99931.63;;;19.41;25.91
31088;BME280;17745;55.914;37.554;2023-06-10T10:46:49;99922.63;;;19.65;25.59
31088;BME280;17745;55.914;37.554;2023-06-10T10:49:22;99923.81;;;20.20;25.80
31088;BME280;17745;55.914;37.554;2023-06-10T10:51:56;99915.25;;;20.69;25.39
31088;BME280;17745;55.914;37.554;2023-06-10T10:54:32;99914.97;;;20.70;25.39
31088;BME280;17745;55.914;37.554;2023-06-10T10:57:19;99932.34;;;20.50;25.78
31088;BME280;17745;55.914;37.554;2023-06-10T11:00:30;99927.19;;;20.40;25.87
31088;BME280;17745;55.914;37.554;2023-06-10T11:03:07;99926.28;;;20.17;25.85
31088;BME280;17745;55.914;37.554;2023-06-10T11:05:47;99941.59;;;19.22;26.85
31088;BME280;17745;55.914;37.554;2023-06-10T11:11:33;99938.88;;;19.74;26.62
31088;BME280;17745;55.914;37.554;2023-06-10T11:14:08;99929.94;;;19.79;26.41
31088;BME280;17745;55.914;37.554;2023-06-10T11:16:40;99936.72;;;19.90;25.83
31088;BME280;17745;55.914;37.554;2023-06-10T11:19:10;99932.87;;;20.24;25.61
31088;BME280;17745;55.914;37.554;2023-06-10T11:22:01;99934.91;;;21.06;25.16
31088;BME280;17745;55.914;37.554;2023-06-10T11:24:31;99922.50;;;23.34;22.40
31088;BME280;17745;55.914;37.554;2023-06-10T11:27:15;99919.91;;;23.46;21.97
31088;BME280;17745;55.914;37.554;2023-06-10T11:29:58;99928.31;;;22.39;22.12
31088;BME280;17745;55.914;37.554;2023-06-10T11:32:51;99921.38;;;22.73;21.66
31088;BME280;17745;55.914;37.554;2023-06-10T11:35:20;99916.03;;;25.06;20.42
31088;BME280;17745;55.914;37.554;2023-06-10T11:37:54;99910.03;;;25.34;19.08
31088;BME280;17745;55.914;37.554;2023-06-10T11:40:23;99942.47;;;23.68;20.96
31088;BME280;17745;55.914;37.554;2023-06-10T11:42:51;99921.25;;;21.71;23.56
31088;BME280;17745;55.914;37.554;2023-06-10T11:45:23;99934.47;;;19.97;26.02
31088;BME280;17745;55.914;37.554;2023-06-10T11:48:00;99941.00;;;18.86;27.81
31088;BME280;17745;55.914;37.554;2023-06-10T11:50:34;99957.50;;;18.99;27.99
31088;BME280;17745;55.914;37.554;2023-06-10T11:53:10;99939.69;;;19.08;28.25
31088;BME280;17745;55.914;37.554;2023-06-10T11:55:46;99950.53;;;19.69;27.65
31088;BME280;17745;55.914;37.554;2023-06-10T11:58:16;99941.88;;;19.73;27.85
31088;BME280;17745;55.914;37.554;2023-06-10T12:00:49;99910.69;;;21.06;26.19
31088;BME280;17745;55.914;37.554;2023-06-10T12:03:18;99936.12;;;22.00;24.86
31088;BME280;17745;55.914;37.554;2023-06-10T12:06:10;99946.03;;;22.98;23.97
31088;BME280;17745;55.914;37.554;2023-06-10T12:08:43;99931.06;;;24.82;22.21
31088;BME280;17745;55.914;37.554;2023-06-10T12:11:14;99927.63;;;24.94;21.34
31088;BME280;17745;55.914;37.554;2023-06-10T12:13:46;99940.25;;;23.61;22.57
31088;BME280;17745;55.914;37.554;2023-06-10T12:16:20;99935.84;;;22.60;23.50
31088;BME280;17745;55.914;37.554;2023-06-10T12:18:49;99929.97;;;23.28;23.03
31088;BME280;17745;55.914;37.554;2023-06-10T12:21:18;99939.41;;;23.69;21.97
31088;BME280;17745;55.914;37.554;2023-06-10T12:24:10;99926.53;;;24.65;21.27
31088;BME280;17745;55.914;37.554;2023-06-10T12:26:44;99943.34;;;24.80;20.97
31088;BME280;17745;55.914;37.554;2023-06-10T12:29:15;99943.28;;;24.89;20.38
31088;BME280;17745;55.914;37.554;2023-06-10T12:31:57;99944.75;;;23.39;21.25
31088;BME280;17745;55.914;37.554;2023-06-10T12:34:35;99921.19;;;22.43;22.29
31088;BME280;17745;55.914;37.554;2023-06-10T12:37:11;99955.34;;;22.48;22.60
31088;BME280;17745;55.914;37.554;2023-06-10T12:39:42;99945.59;;;24.48;20.49
31088;BME280;17745;55.914;37.554;2023-06-10T12:42:22;99924.16;;;25.86;19.26
31088;BME280;17745;55.914;37.554;2023-06-10T12:44:53;99934.84;;;26.98;18.04
31088;BME280;17745;55.914;37.554;2023-06-10T12:47:30;99937.81;;;25.90;18.22
31088;BME280;17745;55.914;37.554;2023-06-10T12:49:59;99946.03;;;23.07;21.88
31088;BME280;17745;55.914;37.554;2023-06-10T12:52:31;99927.59;;;20.19;26.25
31088;BME280;17745;55.914;37.554;2023-06-10T12:55:08;99947.97;;;19.26;27.95
31088;BME280;17745;55.914;37.554;2023-06-10T12:57:36;99955.81;;;18.84;28.94
31088;BME280;17745;55.914;37.554;2023-06-10T13:00:15;99945.66;;;18.81;28.98
31088;BME280;17745;55.914;37.554;2023-06-10T13:03:07;99945.81;;;18.90;28.81
31088;BME280;17745;55.914;37.554;2023-06-10T13:05:38;99948.53;;;18.84;28.82
31088;BME280;17745;55.914;37.554;2023-06-10T13:08:10;99941.88;;;19.39;28.24
31088;BME280;17745;55.914;37.554;2023-06-10T13:10:39;99936.62;;;21.70;25.51
31088;BME280;17745;55.914;37.554;2023-06-10T13:13:12;99952.84;;;22.87;24.22
31088;BME280;17745;55.914;37.554;2023-06-10T13:15:43;99938.94;;;24.45;22.46
31088;BME280;17745;55.914;37.554;2023-06-10T13:18:12;99936.06;;;25.26;21.22
31088;BME280;17745;55.914;37.554;2023-06-10T13:20:42;99936.88;;;25.27;21.15